createdAt,value
2023-02-09T00:02:18.334Z,11.45
2023-02-09T00:04:47.099Z,12.13
2023-02-09T00:07:15.225Z,10.02
2023-02-09T00:09:45.602Z,12.95
2023-02-09T00:12:32.102Z,10.88
2023-02-09T00:15:00.510Z,12.75
2023-02-09T00:17:28.594Z,8.80
2023-02-09T00:19:56.971Z,10.88
2023-02-09T00:22:24.969Z,17.40
2023-02-09T00:24:53.685Z,11.23
2023-02-09T00:27:22.578Z,8.38
2023-02-09T00:29:51.095Z,8.57
2023-02-09T00:32:19.324Z,9.52
2023-02-09T00:34:47.763Z,8.40
2023-02-09T00:37:15.897Z,8.77
2023-02-09T00:39:47.531Z,14.93
2023-02-09T00:42:15.897Z,17.52
2023-02-09T00:44:44.378Z,13.85
2023-02-09T00:47:12.408Z,11.10
2023-02-09T00:49:42.118Z,9.38
2023-02-09T00:52:10.302Z,10.63
2023-02-09T00:54:38.777Z,18.58
2023-02-09T00:57:06.941Z,10.40
2023-02-09T00:59:36.288Z,11.23
2023-02-09T01:02:04.571Z,8.30
2023-02-09T01:04:33.893Z,10.40
2023-02-09T01:07:02.055Z,12.23
2023-02-09T01:09:30.675Z,12.05
2023-02-09T01:11:58.886Z,9.15
2023-02-09T01:14:27.561Z,11.45
2023-02-09T01:16:55.606Z,11.55
2023-02-09T01:19:24.004Z,8.30
2023-02-09T01:21:52.087Z,8.98
2023-02-09T01:24:20.622Z,8.43
2023-02-09T01:26:49.616Z,7.57
2023-02-09T01:29:20.192Z,11.98
2023-02-09T01:31:49.439Z,8.98
2023-02-09T01:34:19.726Z,10.73
2023-02-09T01:36:49.953Z,9.38
2023-02-09T01:39:18.353Z,8.30
2023-02-09T01:41:46.545Z,14.98
2023-02-09T01:44:14.959Z,10.32
2023-02-09T01:46:44.636Z,11.95
2023-02-09T01:49:23.086Z,10.55
2023-02-09T01:51:56.017Z,11.70
2023-02-09T01:54:33.236Z,11.13
2023-02-09T01:57:08.530Z,10.13
2023-02-09T01:59:39.877Z,10.40
2023-02-09T02:02:09.196Z,12.80
2023-02-09T02:04:39.620Z,11.38
2023-02-09T02:07:31.606Z,13.52
2023-02-09T02:10:01.584Z,10.38
2023-02-09T02:12:31.055Z,12.05
2023-02-09T02:14:59.484Z,8.35
2023-02-09T02:17:49.355Z,7.72
2023-02-09T02:20:36.981Z,11.13
2023-02-09T02:23:08.853Z,11.30
2023-02-09T02:26:07.004Z,8.05
2023-02-09T02:28:43.662Z,11.88
2023-02-09T02:31:30.570Z,10.13
2023-02-09T02:34:17.174Z,8.60
2023-02-09T02:37:06.880Z,10.60
2023-02-09T02:39:44.200Z,8.57
2023-02-09T02:42:51.960Z,10.00
2023-02-09T02:45:39.210Z,9.57
2023-02-09T02:48:31.653Z,11.80
2023-02-09T02:51:06.224Z,8.90
2023-02-09T02:53:38.014Z,9.40
2023-02-09T02:56:21.586Z,10.27
2023-02-09T02:58:52.959Z,8.57
2023-02-09T03:01:25.627Z,8.77
2023-02-09T03:03:55.307Z,11.05
2023-02-09T03:06:23.418Z,8.02
2023-02-09T03:08:57.758Z,8.07
2023-02-09T03:11:32.264Z,13.88
2023-02-09T03:14:28.279Z,9.75
2023-02-09T03:17:27.458Z,10.35
2023-02-09T03:20:14.017Z,8.10
2023-02-09T03:22:52.767Z,7.72
2023-02-09T03:25:31.857Z,10.93
2023-02-09T03:28:08.299Z,9.55
2023-02-09T03:30:42.311Z,8.90
2023-02-09T03:33:27.735Z,10.30
2023-02-09T03:35:59.454Z,9.07
2023-02-09T03:38:30.280Z,10.45
2023-02-09T03:40:58.595Z,7.35
2023-02-09T03:43:46.779Z,6.32
2023-02-09T03:46:15.386Z,8.77
2023-02-09T03:48:43.318Z,11.20
2023-02-09T03:51:13.218Z,7.95
2023-02-09T03:53:41.115Z,7.03
2023-02-09T03:56:09.530Z,8.77
2023-02-09T03:58:37.870Z,10.52
2023-02-09T04:01:11.559Z,7.75
2023-02-09T04:03:40.135Z,11.75
2023-02-09T04:06:10.538Z,9.55
2023-02-09T04:08:38.891Z,9.45
2023-02-09T04:11:07.221Z,7.25
2023-02-09T04:13:35.427Z,8.82
2023-02-09T04:16:03.863Z,6.47
2023-02-09T04:18:31.809Z,6.57
2023-02-09T04:20:59.979Z,14.20
2023-02-09T04:23:27.944Z,7.70
2023-02-09T04:25:56.689Z,8.52
2023-02-09T04:28:24.720Z,6.72
2023-02-09T04:30:54.643Z,7.20
2023-02-09T04:33:24.253Z,10.05
2023-02-09T04:35:52.966Z,8.00
2023-02-09T04:38:22.158Z,11.13
2023-02-09T04:40:52.905Z,7.22
2023-02-09T04:43:22.670Z,6.47
2023-02-09T04:45:51.368Z,8.02
2023-02-09T04:48:21.614Z,7.47
2023-02-09T04:50:50.632Z,6.90
2023-02-09T04:53:20.252Z,7.07
2023-02-09T04:55:49.124Z,9.18
2023-02-09T04:58:37.986Z,7.28
2023-02-09T05:01:08.243Z,6.72
2023-02-09T05:03:36.200Z,8.68
2023-02-09T05:06:06.227Z,7.93
2023-02-09T05:08:34.356Z,7.10
2023-02-09T05:11:02.575Z,7.72
2023-02-09T05:13:30.621Z,7.57
2023-02-09T05:15:59.016Z,8.07
2023-02-09T05:18:26.948Z,10.50
2023-02-09T05:20:55.326Z,7.88
2023-02-09T05:23:23.394Z,12.95
2023-02-09T05:25:51.727Z,7.88
2023-02-09T05:28:19.712Z,11.10
2023-02-09T05:30:53.843Z,9.32
2023-02-09T05:35:52.526Z,14.60
2023-02-09T05:38:20.610Z,11.90
2023-02-09T05:40:49.208Z,16.20
2023-02-09T05:43:17.316Z,9.88
2023-02-09T05:45:46.093Z,10.93
2023-02-09T05:48:14.145Z,21.00
2023-02-09T05:50:42.436Z,14.90
2023-02-09T05:53:10.565Z,11.85
2023-02-09T05:55:38.994Z,21.42
2023-02-09T05:58:06.927Z,14.65
2023-02-09T06:00:35.313Z,12.15
2023-02-09T06:03:03.291Z,11.07
2023-02-09T06:05:31.762Z,15.50
2023-02-09T06:07:59.748Z,10.32
2023-02-09T06:10:28.120Z,14.15
2023-02-09T06:12:56.119Z,9.85
2023-02-09T06:15:24.543Z,22.23
2023-02-09T06:17:52.670Z,16.67
2023-02-09T06:20:21.020Z,15.40
2023-02-09T06:22:48.998Z,14.75
2023-02-09T06:25:18.341Z,21.33
2023-02-09T06:27:46.224Z,15.10
2023-02-09T06:30:14.748Z,16.25
2023-02-09T06:32:42.781Z,17.95
2023-02-09T06:35:11.095Z,28.20
2023-02-09T06:37:39.013Z,10.68
2023-02-09T06:40:07.616Z,11.55
2023-02-09T06:42:44.401Z,11.45
2023-02-09T06:45:15.668Z,22.17
2023-02-09T06:47:45.209Z,11.65
2023-02-09T06:50:15.655Z,17.08
2023-02-09T06:52:43.953Z,9.50
2023-02-09T06:55:12.884Z,14.52
2023-02-09T06:57:41.221Z,14.95
2023-02-09T07:00:11.758Z,11.10
2023-02-09T07:02:43.109Z,8.98
2023-02-09T07:05:13.756Z,12.95
2023-02-09T07:07:42.340Z,19.02
2023-02-09T07:10:13.353Z,17.45
2023-02-09T07:12:43.523Z,13.27
2023-02-09T07:15:14.340Z,18.27
2023-02-09T07:17:42.551Z,16.92
2023-02-09T07:20:11.522Z,18.20
2023-02-09T07:22:39.490Z,13.07
2023-02-09T07:25:08.101Z,23.92
2023-02-09T07:27:36.168Z,11.65
2023-02-09T07:30:04.729Z,12.50
2023-02-09T07:32:34.187Z,14.95
2023-02-09T07:35:02.536Z,12.82
2023-02-09T07:37:30.703Z,19.58
2023-02-09T07:39:59.112Z,20.73
2023-02-09T07:42:27.197Z,15.32
2023-02-09T07:45:02.437Z,18.55
2023-02-09T07:47:30.440Z,18.38
2023-02-09T07:49:58.833Z,10.15
2023-02-09T07:52:26.802Z,14.10
2023-02-09T07:54:55.167Z,17.02
2023-02-09T07:57:23.228Z,15.93
2023-02-09T07:59:51.816Z,12.68
2023-02-09T08:02:30.023Z,12.48
2023-02-09T08:05:00.900Z,8.15
2023-02-09T08:07:29.332Z,7.22
2023-02-09T08:09:57.915Z,10.27
2023-02-09T08:12:48.289Z,12.55
2023-02-09T08:15:21.324Z,10.90
2023-02-09T08:17:55.652Z,10.60
2023-02-09T08:20:27.684Z,14.02
2023-02-09T08:23:01.198Z,20.77
2023-02-09T08:25:29.731Z,13.38
2023-02-09T08:27:58.090Z,14.07
2023-02-09T08:30:26.524Z,14.68
2023-02-09T08:32:54.421Z,11.13
2023-02-09T08:35:22.691Z,15.55
2023-02-09T08:37:50.565Z,29.98
2023-02-09T08:40:19.140Z,12.80
2023-02-09T08:42:47.150Z,13.40
2023-02-09T08:45:15.411Z,14.82
2023-02-09T08:47:43.397Z,13.65
2023-02-09T08:50:11.686Z,18.88
2023-02-09T08:52:39.593Z,14.32
2023-02-09T08:55:08.121Z,15.52
2023-02-09T08:57:44.110Z,16.48
2023-02-09T09:00:13.794Z,17.38
2023-02-09T09:02:41.802Z,24.88
2023-02-09T09:05:10.407Z,14.63
2023-02-09T09:07:38.296Z,15.30
2023-02-09T09:10:09.202Z,13.50
2023-02-09T09:12:38.031Z,15.85
2023-02-09T09:15:06.989Z,14.35
2023-02-09T09:17:34.987Z,15.48
2023-02-09T09:20:03.892Z,12.20
2023-02-09T09:22:31.770Z,15.77
2023-02-09T09:25:00.130Z,12.48
2023-02-09T09:27:28.566Z,12.98
2023-02-09T09:29:56.888Z,14.57
2023-02-09T09:32:25.531Z,16.23
2023-02-09T09:34:55.596Z,14.70
2023-02-09T09:37:24.297Z,12.68
2023-02-09T09:39:53.191Z,15.20
2023-02-09T09:42:48.584Z,13.20
2023-02-09T09:45:21.283Z,13.25
2023-02-09T09:47:49.696Z,15.35
2023-02-09T09:50:24.479Z,14.15
2023-02-09T09:52:58.968Z,17.55
2023-02-09T09:55:33.941Z,16.15
2023-02-09T09:58:05.691Z,14.60
2023-02-09T10:00:40.751Z,13.15
2023-02-09T10:03:16.794Z,18.38
2023-02-09T10:05:48.593Z,15.95
2023-02-09T10:08:29.761Z,12.30
2023-02-09T10:11:09.205Z,16.67
2023-02-09T10:13:44.744Z,17.98
2023-02-09T10:16:17.483Z,12.55
2023-02-09T10:18:49.373Z,15.13
2023-02-09T10:21:18.114Z,15.88
2023-02-09T10:23:51.200Z,11.90
2023-02-09T10:26:25.734Z,13.20
2023-02-09T10:28:56.726Z,12.00
2023-02-09T10:31:39.370Z,10.93
2023-02-09T10:34:28.713Z,13.23
2023-02-09T10:37:34.512Z,21.58
2023-02-09T10:40:16.148Z,14.35
2023-02-09T10:42:56.429Z,10.48
2023-02-09T10:45:40.240Z,11.65
2023-02-09T10:51:05.580Z,12.47
2023-02-09T10:53:41.243Z,12.77
2023-02-09T10:56:21.978Z,11.82
2023-02-09T10:58:52.098Z,10.32
2023-02-09T11:01:26.114Z,13.40
2023-02-09T11:04:03.645Z,12.27
2023-02-09T11:07:02.405Z,14.25
2023-02-09T11:09:38.165Z,9.45
2023-02-09T11:12:11.382Z,10.85
2023-02-09T11:14:40.320Z,10.23
2023-02-09T11:17:23.199Z,13.35
2023-02-09T11:20:23.537Z,19.23
2023-02-09T11:23:15.574Z,10.15
2023-02-09T11:25:57.809Z,9.70
2023-02-09T11:28:47.697Z,12.88
2023-02-09T11:31:37.010Z,10.65
2023-02-09T11:34:13.634Z,11.95
2023-02-09T11:37:19.354Z,18.00
2023-02-09T11:40:22.386Z,10.77
2023-02-09T11:43:35.694Z,15.02
2023-02-09T11:46:17.379Z,11.15
2023-02-09T11:48:50.547Z,11.18
2023-02-09T11:51:27.026Z,11.27
2023-02-09T11:54:10.934Z,12.27
2023-02-09T11:56:43.054Z,11.40
2023-02-09T11:59:11.255Z,9.18
2023-02-09T12:01:53.493Z,10.10
2023-02-09T12:04:43.838Z,21.35
2023-02-09T12:07:20.176Z,13.13
2023-02-09T12:10:10.083Z,9.60
2023-02-09T12:12:46.296Z,19.00
2023-02-09T12:15:18.488Z,8.90
2023-02-09T12:17:54.277Z,9.20
2023-02-09T12:20:28.465Z,17.50
2023-02-09T12:25:53.190Z,19.60
2023-02-09T12:28:30.425Z,13.18
2023-02-09T12:31:02.615Z,11.63
2023-02-09T12:33:36.061Z,11.43
2023-02-09T12:36:10.319Z,9.05
2023-02-09T12:39:04.081Z,12.02
2023-02-09T12:44:06.471Z,10.13
2023-02-09T12:46:54.941Z,10.23
2023-02-09T12:49:29.113Z,13.50
2023-02-09T12:52:00.773Z,13.90
2023-02-09T12:54:34.769Z,12.82
2023-02-09T12:57:15.006Z,13.65
2023-02-09T13:00:01.285Z,12.02
2023-02-09T13:02:46.701Z,11.88
2023-02-09T13:05:34.332Z,10.38
2023-02-09T13:08:11.273Z,13.30
2023-02-09T13:10:47.541Z,11.60
2023-02-09T13:13:33.702Z,11.02
2023-02-09T13:16:03.373Z,11.80
2023-02-09T13:18:52.536Z,11.88
2023-02-09T13:21:38.429Z,19.15
2023-02-09T13:24:22.328Z,11.32
2023-02-09T13:26:54.301Z,13.23
2023-02-09T13:29:28.362Z,24.10
2023-02-09T13:32:02.370Z,10.88
2023-02-09T13:34:42.477Z,10.52
2023-02-09T13:37:50.215Z,20.17
2023-02-09T13:40:24.812Z,14.52
2023-02-09T13:43:10.865Z,12.23
2023-02-09T13:45:54.743Z,16.60
2023-02-09T13:48:35.127Z,12.23
2023-02-09T13:51:15.120Z,14.80
2023-02-09T13:53:58.893Z,17.75
2023-02-09T13:58:56.260Z,17.05
2023-02-09T14:01:30.474Z,18.67
2023-02-09T14:04:30.470Z,25.98
2023-02-09T14:07:08.388Z,19.23
2023-02-09T14:10:01.809Z,13.40
2023-02-09T14:13:03.869Z,11.82
2023-02-09T14:16:04.167Z,15.23
2023-02-09T14:18:44.723Z,13.98
2023-02-09T14:21:15.463Z,18.40
2023-02-09T14:23:47.126Z,15.32
2023-02-09T14:26:15.319Z,11.70
2023-02-09T14:28:49.395Z,16.15
2023-02-09T14:31:26.786Z,18.10
2023-02-09T14:33:57.033Z,16.67
2023-02-09T14:36:30.942Z,17.35
2023-02-09T14:39:17.041Z,16.80
2023-02-09T14:42:18.379Z,21.80
2023-02-09T14:44:58.975Z,14.02
2023-02-09T14:47:45.812Z,13.68
2023-02-09T14:50:24.196Z,16.23
2023-02-09T14:53:11.194Z,19.27
2023-02-09T14:55:41.005Z,16.75
2023-02-09T14:58:31.976Z,17.70
2023-02-09T15:01:02.876Z,22.65
2023-02-09T15:03:30.952Z,21.48
2023-02-09T15:06:02.566Z,17.10
2023-02-09T15:08:33.873Z,17.60
2023-02-09T15:11:28.335Z,19.67
2023-02-09T15:14:04.260Z,20.65
2023-02-09T15:16:32.733Z,14.73
2023-02-09T15:19:01.425Z,24.10
2023-02-09T15:21:29.715Z,25.08
2023-02-09T15:23:57.685Z,20.02
2023-02-09T15:26:27.943Z,14.55
2023-02-09T15:28:55.892Z,18.98
2023-02-09T15:31:25.017Z,15.25
2023-02-09T15:33:52.983Z,14.25
2023-02-09T15:36:29.159Z,19.00
2023-02-09T15:38:57.273Z,12.88
2023-02-09T15:41:44.002Z,16.73
2023-02-09T15:44:39.401Z,27.13
2023-02-09T15:47:26.051Z,13.75
2023-02-09T15:49:54.020Z,12.52
2023-02-09T15:52:22.594Z,14.55
2023-02-09T15:54:52.793Z,13.40
2023-02-09T15:57:25.759Z,13.50
2023-02-09T15:59:53.857Z,16.02
2023-02-09T16:02:22.556Z,18.23
2023-02-09T16:04:50.585Z,15.40
2023-02-09T16:07:25.272Z,15.82
2023-02-09T16:09:53.155Z,16.83
2023-02-09T16:12:21.457Z,14.55
2023-02-09T16:14:50.077Z,28.38
2023-02-09T16:17:19.363Z,32.08
2023-02-09T16:19:49.207Z,21.67
2023-02-09T16:22:19.910Z,37.47
2023-02-09T16:24:48.991Z,45.33
2023-02-09T16:27:28.810Z,25.98
2023-02-09T16:29:58.444Z,23.38
2023-02-09T16:32:28.776Z,22.90
2023-02-09T16:35:07.364Z,36.45
2023-02-09T16:37:46.005Z,26.38
2023-02-09T16:40:33.386Z,40.25
2023-02-09T16:43:02.050Z,23.42
2023-02-09T16:45:37.484Z,30.42
2023-02-09T16:48:06.049Z,31.92
2023-02-09T16:50:38.310Z,25.25
2023-02-09T16:53:33.019Z,24.27
2023-02-09T16:58:34.241Z,22.48
2023-02-09T17:01:02.821Z,24.83
2023-02-09T17:03:35.076Z,37.25
2023-02-09T17:06:03.368Z,32.85
2023-02-09T17:08:35.029Z,30.02
2023-02-09T17:11:04.372Z,33.22
2023-02-09T17:13:32.736Z,32.35
2023-02-09T17:16:04.148Z,26.15
2023-02-09T17:18:37.655Z,37.80
2023-02-09T17:21:14.697Z,29.65
2023-02-09T17:23:43.997Z,34.83
2023-02-09T17:26:13.540Z,36.78
2023-02-09T17:28:43.126Z,38.78
2023-02-09T17:31:47.015Z,36.45
2023-02-09T17:34:20.520Z,48.80
2023-02-09T17:36:48.506Z,46.97
2023-02-09T17:39:19.247Z,40.20
2023-02-09T17:41:50.310Z,36.90
2023-02-09T17:44:39.549Z,44.97
2023-02-09T17:47:16.780Z,34.20
2023-02-09T17:49:45.184Z,40.97
2023-02-09T17:52:18.174Z,35.50
2023-02-09T17:54:47.168Z,27.15
2023-02-09T17:57:17.258Z,30.48
2023-02-09T17:59:47.160Z,24.92
2023-02-09T18:02:17.911Z,30.35
2023-02-09T18:04:46.382Z,38.72
2023-02-09T18:07:20.408Z,32.75
2023-02-09T18:09:48.991Z,33.20
2023-02-09T18:12:23.141Z,34.53
2023-02-09T18:14:51.397Z,31.73
2023-02-09T18:17:19.646Z,36.40
2023-02-09T18:19:48.192Z,27.35
2023-02-09T18:22:20.264Z,28.90
2023-02-09T18:24:49.078Z,47.15
2023-02-09T18:27:21.114Z,42.67
2023-02-09T18:29:49.586Z,40.58
2023-02-09T18:32:17.976Z,36.25
2023-02-09T18:34:46.242Z,30.10
2023-02-09T18:37:16.040Z,34.13
2023-02-09T18:39:46.940Z,46.53
2023-02-09T18:42:16.118Z,37.85
2023-02-09T18:44:44.610Z,40.92
2023-02-09T18:47:12.668Z,52.95
2023-02-09T18:49:40.952Z,36.22
2023-02-09T18:52:10.441Z,39.50
2023-02-09T18:54:38.653Z,39.83
2023-02-09T18:57:06.669Z,39.00
2023-02-09T18:59:34.982Z,46.70
2023-02-09T19:02:02.997Z,42.58
2023-02-09T19:04:31.307Z,35.20
2023-02-09T19:06:59.347Z,45.33
2023-02-09T19:09:27.857Z,51.67
2023-02-09T19:11:55.815Z,32.53
2023-02-09T19:14:39.161Z,34.25
2023-02-09T19:17:10.251Z,42.17
2023-02-09T19:19:39.082Z,36.00
2023-02-09T19:22:07.785Z,35.38
2023-02-09T19:24:36.289Z,46.53
2023-02-09T19:27:06.950Z,41.13
2023-02-09T19:29:38.026Z,35.45
2023-02-09T19:32:06.344Z,30.20
2023-02-09T19:34:37.215Z,50.40
2023-02-09T19:37:06.903Z,37.40
2023-02-09T19:39:38.403Z,38.47
2023-02-09T19:42:06.716Z,35.00
2023-02-09T19:44:36.208Z,31.85
2023-02-09T19:47:04.293Z,39.50
2023-02-09T19:49:34.289Z,41.42
2023-02-09T19:52:02.667Z,91.07
2023-02-09T19:54:31.531Z,183.00
2023-02-09T19:57:00.088Z,126.90
2023-02-09T19:59:28.303Z,79.70
2023-02-09T20:01:56.370Z,57.65
2023-02-09T20:04:24.701Z,44.05
2023-02-09T20:06:56.304Z,38.15
2023-02-09T20:09:25.114Z,53.22
2023-02-09T20:11:53.039Z,54.83
2023-02-09T20:14:22.054Z,38.75
2023-02-09T20:16:49.982Z,47.78
2023-02-09T20:19:18.222Z,47.50
2023-02-09T20:21:46.493Z,38.33
2023-02-09T20:24:15.336Z,63.45
2023-02-09T20:26:46.330Z,60.55
2023-02-09T20:29:16.936Z,51.67
2023-02-09T20:31:44.938Z,60.47
2023-02-09T20:34:15.410Z,84.10
2023-02-09T20:36:46.324Z,73.68
2023-02-09T20:39:16.623Z,48.75
2023-02-09T20:42:05.144Z,71.63
2023-02-09T20:44:53.258Z,68.55
2023-02-09T20:47:21.300Z,84.72
2023-02-09T20:49:49.684Z,60.95
2023-02-09T20:52:17.750Z,76.18
2023-02-09T20:54:46.012Z,42.22
2023-02-09T20:57:13.937Z,45.03
2023-02-09T20:59:42.764Z,43.78
2023-02-09T21:02:15.321Z,45.17
2023-02-09T21:04:43.602Z,51.90
2023-02-09T21:07:11.641Z,55.22
2023-02-09T21:09:39.979Z,52.67
2023-02-09T21:12:08.340Z,44.17
2023-02-09T21:14:44.170Z,59.15
2023-02-09T21:17:12.771Z,45.83
2023-02-09T21:19:41.203Z,35.92
2023-02-09T21:22:09.398Z,43.40
2023-02-09T21:24:39.280Z,43.35
2023-02-09T21:27:07.276Z,54.38
2023-02-09T21:29:36.027Z,53.63
2023-02-09T21:32:06.980Z,51.40
2023-02-09T21:34:36.022Z,56.30
2023-02-09T21:37:04.006Z,39.40
2023-02-09T21:39:32.373Z,43.28
2023-02-09T21:42:29.941Z,42.25
2023-02-09T21:44:59.756Z,46.15
2023-02-09T21:47:31.915Z,45.03
2023-02-09T21:50:00.713Z,38.85
2023-02-09T21:52:30.238Z,40.10
2023-02-09T21:54:58.600Z,44.92
2023-02-09T21:57:26.963Z,43.10
2023-02-09T21:59:55.507Z,42.92
2023-02-09T22:02:23.464Z,45.08
2023-02-09T22:04:52.922Z,42.38
2023-02-09T22:07:20.884Z,37.20
2023-02-09T22:09:49.080Z,54.33
2023-02-09T22:12:16.937Z,66.43
2023-02-09T22:14:45.811Z,42.22
2023-02-09T22:17:13.699Z,38.50
2023-02-09T22:19:42.065Z,46.42
2023-02-09T22:22:11.141Z,43.80
2023-02-09T22:24:39.431Z,53.55
2023-02-09T22:27:07.346Z,45.83
2023-02-09T22:29:35.815Z,46.42
2023-02-09T22:32:03.817Z,45.90
2023-02-09T22:34:32.085Z,51.42
2023-02-09T22:36:59.905Z,45.85
2023-02-09T22:39:28.169Z,47.13
2023-02-09T22:41:58.941Z,39.00
2023-02-09T22:44:30.875Z,61.53
2023-02-09T22:46:58.890Z,40.65
2023-02-09T22:49:27.183Z,40.78
2023-02-09T22:51:55.368Z,45.33
2023-02-09T22:54:23.650Z,48.00
2023-02-09T22:56:52.151Z,33.22
2023-02-09T22:59:20.658Z,43.80
2023-02-09T23:01:48.820Z,38.58
2023-02-09T23:04:17.184Z,42.55
2023-02-09T23:06:45.303Z,45.50
2023-02-09T23:09:14.801Z,42.75
2023-02-09T23:11:42.728Z,45.90
2023-02-09T23:14:11.604Z,36.88
2023-02-09T23:16:41.426Z,32.40
2023-02-09T23:19:13.706Z,42.58
2023-02-09T23:21:44.773Z,44.13
2023-02-09T23:24:15.119Z,41.40
2023-02-09T23:26:43.118Z,41.50
2023-02-09T23:29:14.335Z,42.42
2023-02-09T23:31:43.663Z,42.28
2023-02-09T23:34:17.207Z,47.17
2023-02-09T23:36:45.840Z,45.17
2023-02-09T23:39:19.845Z,41.75
2023-02-09T23:41:47.710Z,51.45
2023-02-09T23:44:16.220Z,41.97
2023-02-09T23:46:44.949Z,43.63
2023-02-09T23:49:13.158Z,51.40
2023-02-09T23:51:40.988Z,39.17
2023-02-09T23:54:10.868Z,42.97
2023-02-09T23:56:39.370Z,43.22
2023-02-09T23:59:11.692Z,38.05
